ARA227 LFMT-EDDG
Flight info
| Callsign | ARA227 |
|---|---|
| Flight time | 1h 20m |
| Altitude | 36000 |
| Route | MTL A6 ROMAM Z16 LTP N871 GIPNO DCT BELUS DCT MOREG L47 ARBOS DCT GIVOR V36 AKELU N852 SUTAL/N0454F370 DCT DOMEG DCT HMM HMM1A |
| Aircraft | B737/M-SDE2E3FGHIRWXY/LB1 |
Departure
| Time | 2026-05-04 21:30 |
|---|---|
| Airport | Montpellier-Méditerranée Airport (LFMT) |
Arrival
| Time | 2026-05-04 22:50 |
|---|---|
| Airport | Münster Osnabrück Airport (EDDG) |
| Time | Latitude | Longitude | Altitude | Speed | Heading |
|---|---|---|---|---|---|
| 2026-05-04 21:22 | 43.57963 | 3.95998 | 22 ft | 0 kts | 256° |
| 2026-05-04 21:26 | 43.57972 | 3.95969 | 24 ft | 11 kts | 313° |
| 2026-05-04 21:27 | 43.58063 | 3.95891 | 20 ft | 16 kts | 308° |
| 2026-05-04 21:27 | 43.58162 | 3.95761 | 21 ft | 15 kts | 2° |
| 2026-05-04 21:27 | 43.58247 | 3.95825 | 20 ft | 14 kts | 4° |
| 2026-05-04 21:27 | 43.58327 | 3.95731 | 19 ft | 22 kts | 303° |
| 2026-05-04 21:28 | 43.58415 | 3.95555 | 22 ft | 22 kts | 308° |
| 2026-05-04 21:28 | 43.58543 | 3.95523 | 25 ft | 20 kts | 37° |
| 2026-05-04 21:28 | 43.58584 | 3.95621 | 22 ft | 15 kts | 96° |
| 2026-05-04 21:28 | 43.58567 | 3.95665 | 24 ft | 0 kts | 124° |
| 2026-05-04 21:30 | 43.58541 | 3.95719 | 22 ft | 20 kts | 124° |
| 2026-05-04 21:30 | 43.58327 | 3.96162 | 24 ft | 91 kts | 124° |
| 2026-05-04 21:30 | 43.57851 | 3.97134 | 105 ft | 145 kts | 120° |
| 2026-05-04 21:30 | 43.57189 | 3.98661 | 1381 ft | 130 kts | 121° |
| 2026-05-04 21:31 | 43.56541 | 4.00444 | 2828 ft | 124 kts | 130° |
| 2026-05-04 21:31 | 43.56119 | 4.01562 | 3275 ft | 153 kts | 108° |
| 2026-05-04 21:31 | 43.56168 | 4.03255 | 3538 ft | 193 kts | 83° |
| 2026-05-04 21:32 | 43.56775 | 4.04859 | 4623 ft | 183 kts | 52° |
| 2026-05-04 21:32 | 43.57907 | 4.05725 | 5179 ft | 201 kts | 4° |
| 2026-05-04 21:32 | 43.59365 | 4.05475 | 5505 ft | 223 kts | 348° |
| 2026-05-04 21:32 | 43.60989 | 4.05714 | 5754 ft | 249 kts | 17° |
| 2026-05-04 21:33 | 43.62708 | 4.06425 | 6087 ft | 267 kts | 15° |
| 2026-05-04 21:33 | 43.64557 | 4.07168 | 6446 ft | 286 kts | 17° |
| 2026-05-04 21:33 | 43.66492 | 4.08103 | 6998 ft | 299 kts | 21° |
| 2026-05-04 21:33 | 43.68432 | 4.09103 | 7989 ft | 298 kts | 20° |
| 2026-05-04 21:34 | 43.70404 | 4.10124 | 8775 ft | 306 kts | 20° |
| 2026-05-04 21:34 | 43.72406 | 4.11150 | 9693 ft | 307 kts | 20° |
| 2026-05-04 21:34 | 43.74393 | 4.12163 | 10455 ft | 314 kts | 20° |
| 2026-05-04 21:34 | 43.76527 | 4.13249 | 10713 ft | 339 kts | 20° |
| 2026-05-04 21:35 | 43.78824 | 4.14417 | 10911 ft | 364 kts | 20° |
| 2026-05-04 21:35 | 43.81271 | 4.15662 | 11165 ft | 384 kts | 20° |
| 2026-05-04 21:35 | 43.83812 | 4.16957 | 11716 ft | 393 kts | 20° |
| 2026-05-04 21:35 | 43.86390 | 4.18271 | 12421 ft | 397 kts | 20° |
| 2026-05-04 21:36 | 43.88992 | 4.19599 | 13205 ft | 400 kts | 20° |
| 2026-05-04 21:36 | 43.91623 | 4.20943 | 13905 ft | 406 kts | 20° |
| 2026-05-04 21:36 | 43.94291 | 4.22307 | 14565 ft | 410 kts | 20° |
| 2026-05-04 21:36 | 43.96983 | 4.23685 | 15270 ft | 415 kts | 20° |
| 2026-05-04 21:37 | 43.99703 | 4.25078 | 15967 ft | 419 kts | 20° |
| 2026-05-04 21:37 | 44.02368 | 4.26620 | 16622 ft | 423 kts | 29° |
| 2026-05-04 21:37 | 44.04866 | 4.28819 | 17301 ft | 426 kts | 35° |
| 2026-05-04 21:37 | 44.07310 | 4.31204 | 17958 ft | 431 kts | 37° |
| 2026-05-04 21:38 | 44.09762 | 4.33651 | 18566 ft | 435 kts | 37° |
| 2026-05-04 21:38 | 44.12238 | 4.36113 | 19157 ft | 438 kts | 37° |
| 2026-05-04 21:38 | 44.14732 | 4.38563 | 19758 ft | 441 kts | 36° |
| 2026-05-04 21:38 | 44.17270 | 4.41030 | 20338 ft | 444 kts | 36° |
| 2026-05-04 21:39 | 44.19790 | 4.43462 | 20895 ft | 448 kts | 36° |
| 2026-05-04 21:39 | 44.22366 | 4.45939 | 21450 ft | 451 kts | 36° |
| 2026-05-04 21:39 | 44.24970 | 4.48441 | 22006 ft | 454 kts | 36° |
| 2026-05-04 21:39 | 44.27583 | 4.50953 | 22538 ft | 457 kts | 36° |
| 2026-05-04 21:40 | 44.30214 | 4.53486 | 23034 ft | 461 kts | 36° |
| 2026-05-04 21:40 | 44.32830 | 4.56009 | 23517 ft | 464 kts | 36° |
| 2026-05-04 21:40 | 44.35500 | 4.58587 | 23934 ft | 467 kts | 36° |
| 2026-05-04 21:40 | 44.38186 | 4.61184 | 24343 ft | 470 kts | 36° |
| 2026-05-04 21:41 | 44.40889 | 4.63801 | 24738 ft | 474 kts | 36° |
| 2026-05-04 21:41 | 44.43610 | 4.66438 | 25120 ft | 477 kts | 36° |
| 2026-05-04 21:41 | 44.46347 | 4.69095 | 25516 ft | 480 kts | 36° |
| 2026-05-04 21:41 | 44.49099 | 4.71768 | 25901 ft | 482 kts | 36° |
| 2026-05-04 21:42 | 44.51865 | 4.74458 | 26264 ft | 485 kts | 36° |
| 2026-05-04 21:42 | 44.54610 | 4.77129 | 26616 ft | 488 kts | 36° |
| 2026-05-04 21:42 | 44.57490 | 4.79684 | 26949 ft | 492 kts | 30° |
| 2026-05-04 21:42 | 44.60564 | 4.81879 | 27289 ft | 495 kts | 26° |
| 2026-05-04 21:43 | 44.63699 | 4.83923 | 27636 ft | 498 kts | 26° |
| 2026-05-04 21:43 | 44.66850 | 4.85984 | 27961 ft | 500 kts | 26° |
| 2026-05-04 21:43 | 44.69969 | 4.88118 | 28253 ft | 503 kts | 27° |
| 2026-05-04 21:43 | 44.73112 | 4.90332 | 28551 ft | 505 kts | 28° |
| 2026-05-04 21:44 | 44.76258 | 4.92553 | 28898 ft | 507 kts | 27° |
| 2026-05-04 21:44 | 44.79413 | 4.94750 | 29351 ft | 506 kts | 27° |
| 2026-05-04 21:44 | 44.82564 | 4.96931 | 29843 ft | 504 kts | 27° |
| 2026-05-04 21:44 | 44.85707 | 4.99107 | 30270 ft | 503 kts | 27° |
| 2026-05-04 21:45 | 44.88850 | 5.01288 | 30591 ft | 504 kts | 27° |
| 2026-05-04 21:45 | 44.92004 | 5.03483 | 30870 ft | 506 kts | 27° |
| 2026-05-04 21:45 | 44.95159 | 5.05685 | 31186 ft | 506 kts | 27° |
| 2026-05-04 21:45 | 44.98312 | 5.07890 | 31547 ft | 506 kts | 27° |
| 2026-05-04 21:46 | 45.01469 | 5.10101 | 31896 ft | 505 kts | 27° |
| 2026-05-04 21:46 | 45.04621 | 5.12311 | 32213 ft | 506 kts | 26° |
| 2026-05-04 21:46 | 45.07767 | 5.14518 | 32543 ft | 506 kts | 26° |
| 2026-05-04 21:46 | 45.10919 | 5.16733 | 32894 ft | 505 kts | 26° |
| 2026-05-04 21:47 | 45.14064 | 5.18957 | 33238 ft | 505 kts | 26° |
| 2026-05-04 21:47 | 45.17197 | 5.21185 | 33569 ft | 504 kts | 27° |
| 2026-05-04 21:47 | 45.20340 | 5.23426 | 33875 ft | 504 kts | 27° |
| 2026-05-04 21:47 | 45.23461 | 5.25655 | 34169 ft | 504 kts | 27° |
| 2026-05-04 21:48 | 45.26598 | 5.27897 | 34474 ft | 502 kts | 27° |
| 2026-05-04 21:48 | 45.29720 | 5.30129 | 34789 ft | 501 kts | 26° |
| 2026-05-04 21:48 | 45.32827 | 5.32353 | 35061 ft | 500 kts | 26° |
| 2026-05-04 21:48 | 45.35897 | 5.34552 | 35335 ft | 499 kts | 26° |
| 2026-05-04 21:49 | 45.38992 | 5.36772 | 35611 ft | 498 kts | 26° |
| 2026-05-04 21:49 | 45.42084 | 5.38992 | 35858 ft | 497 kts | 26° |
| 2026-05-04 21:49 | 45.45171 | 5.41212 | 36005 ft | 498 kts | 26° |
| 2026-05-04 21:50 | 45.51072 | 5.46382 | 35977 ft | 497 kts | 41° |
| 2026-05-04 21:50 | 45.56378 | 5.52652 | 35972 ft | 496 kts | 33° |
| 2026-05-04 21:50 | 45.59391 | 5.55043 | 35962 ft | 495 kts | 22° |
| 2026-05-04 21:51 | 45.62593 | 5.56817 | 35977 ft | 493 kts | 19° |
| 2026-05-04 21:51 | 45.69036 | 5.60242 | 35965 ft | 494 kts | 20° |
| 2026-05-04 21:52 | 45.75428 | 5.63853 | 35972 ft | 494 kts | 21° |
| 2026-05-04 21:52 | 45.81809 | 5.67518 | 35965 ft | 494 kts | 21° |
| 2026-05-04 21:53 | 45.88158 | 5.71160 | 35969 ft | 494 kts | 21° |
| 2026-05-04 21:53 | 45.94553 | 5.74823 | 35989 ft | 495 kts | 21° |
| 2026-05-04 21:54 | 46.00958 | 5.78498 | 35980 ft | 495 kts | 21° |
| 2026-05-04 21:54 | 46.07330 | 5.82163 | 35991 ft | 494 kts | 21° |
| 2026-05-04 21:55 | 46.13711 | 5.85844 | 35997 ft | 494 kts | 21° |
| 2026-05-04 21:55 | 46.20079 | 5.89526 | 36000 ft | 493 kts | 21° |
| 2026-05-04 21:56 | 46.26445 | 5.93217 | 35994 ft | 492 kts | 21° |
| 2026-05-04 21:56 | 46.32804 | 5.96913 | 35993 ft | 492 kts | 21° |
| 2026-05-04 21:57 | 46.39230 | 6.00219 | 35987 ft | 489 kts | 11° |
| 2026-05-04 21:57 | 46.45901 | 6.01173 | 36004 ft | 484 kts | 358° |
| 2026-05-04 21:58 | 46.52631 | 6.01288 | 35987 ft | 483 kts | 358° |
| 2026-05-04 21:58 | 46.59362 | 6.01473 | 35989 ft | 483 kts | 359° |
| 2026-05-04 21:59 | 46.66096 | 6.01738 | 35986 ft | 484 kts | 359° |
| 2026-05-04 21:59 | 46.72830 | 6.02006 | 35985 ft | 484 kts | 359° |
| 2026-05-04 22:00 | 46.79568 | 6.02185 | 35982 ft | 484 kts | 358° |
| 2026-05-04 22:00 | 46.86312 | 6.02321 | 35985 ft | 484 kts | 358° |
| 2026-05-04 22:01 | 46.93013 | 6.02472 | 35988 ft | 485 kts | 358° |
| 2026-05-04 22:01 | 46.99759 | 6.02755 | 35978 ft | 487 kts | 3° |
| 2026-05-04 22:02 | 47.06488 | 6.04064 | 35985 ft | 488 kts | 6° |
| 2026-05-04 22:02 | 47.13192 | 6.05630 | 35992 ft | 487 kts | 6° |
| 2026-05-04 22:03 | 47.19894 | 6.07143 | 35990 ft | 487 kts | 6° |
| 2026-05-04 22:03 | 47.26601 | 6.08592 | 35993 ft | 487 kts | 6° |
| 2026-05-04 22:04 | 47.33316 | 6.10020 | 35983 ft | 487 kts | 5° |
| 2026-05-04 22:04 | 47.39978 | 6.11441 | 35987 ft | 486 kts | 6° |
| 2026-05-04 22:05 | 47.46666 | 6.12874 | 35985 ft | 486 kts | 6° |
| 2026-05-04 22:05 | 47.53365 | 6.14316 | 35984 ft | 485 kts | 6° |
| 2026-05-04 22:06 | 47.60040 | 6.15756 | 35975 ft | 485 kts | 5° |
| 2026-05-04 22:06 | 47.66715 | 6.17199 | 35973 ft | 484 kts | 5° |
| 2026-05-04 22:07 | 47.73384 | 6.18645 | 35969 ft | 484 kts | 5° |
| 2026-05-04 22:07 | 47.80042 | 6.20092 | 35968 ft | 483 kts | 5° |
| 2026-05-04 22:08 | 47.86660 | 6.21534 | 35975 ft | 483 kts | 5° |
| 2026-05-04 22:08 | 47.93314 | 6.22988 | 35976 ft | 483 kts | 5° |
| 2026-05-04 22:09 | 47.99976 | 6.24448 | 35980 ft | 484 kts | 5° |
| 2026-05-04 22:09 | 48.06645 | 6.25913 | 35973 ft | 484 kts | 6° |
| 2026-05-04 22:10 | 48.13312 | 6.27381 | 35980 ft | 484 kts | 6° |
| 2026-05-04 22:10 | 48.19982 | 6.28853 | 35973 ft | 485 kts | 6° |
| 2026-05-04 22:11 | 48.26670 | 6.30334 | 35980 ft | 486 kts | 6° |
| 2026-05-04 22:11 | 48.33360 | 6.31819 | 35971 ft | 486 kts | 6° |
| 2026-05-04 22:12 | 48.40058 | 6.33310 | 35985 ft | 486 kts | 6° |
| 2026-05-04 22:12 | 48.46702 | 6.34793 | 35974 ft | 486 kts | 6° |
| 2026-05-04 22:13 | 48.53399 | 6.36291 | 35972 ft | 486 kts | 6° |
| 2026-05-04 22:13 | 48.60096 | 6.37794 | 35973 ft | 486 kts | 6° |
| 2026-05-04 22:14 | 48.66788 | 6.39253 | 35967 ft | 485 kts | 4° |
| 2026-05-04 22:14 | 48.73495 | 6.40028 | 35972 ft | 483 kts | 0° |
| 2026-05-04 22:15 | 48.80207 | 6.40607 | 35970 ft | 483 kts | 1° |
| 2026-05-04 22:15 | 48.85773 | 6.41172 | 35973 ft | 483 kts | 1° |
| 2026-05-04 22:16 | 48.92478 | 6.41880 | 35972 ft | 482 kts | 1° |
| 2026-05-04 22:16 | 48.99179 | 6.42558 | 35968 ft | 482 kts | 1° |
| 2026-05-04 22:17 | 49.06965 | 6.43346 | 35969 ft | 482 kts | 1° |
| 2026-05-04 22:17 | 49.12535 | 6.43915 | 35972 ft | 482 kts | 1° |
| 2026-05-04 22:18 | 49.19238 | 6.44602 | 35974 ft | 482 kts | 1° |
| 2026-05-04 22:18 | 49.25934 | 6.45290 | 35972 ft | 482 kts | 1° |
| 2026-05-04 22:19 | 49.32389 | 6.45905 | 35968 ft | 482 kts | 357° |
| 2026-05-04 22:19 | 49.38957 | 6.44479 | 35972 ft | 474 kts | 340° |
| 2026-05-04 22:20 | 49.45197 | 6.41323 | 35951 ft | 477 kts | 346° |
| 2026-05-04 22:20 | 49.48501 | 6.40816 | 35969 ft | 481 kts | 358° |
| 2026-05-04 22:20 | 49.51827 | 6.41478 | 35966 ft | 485 kts | 14° |
| 2026-05-04 22:21 | 49.58258 | 6.44688 | 35969 ft | 486 kts | 18° |
| 2026-05-04 22:21 | 49.64603 | 6.48159 | 35957 ft | 487 kts | 18° |
| 2026-05-04 22:22 | 49.71013 | 6.51567 | 35957 ft | 487 kts | 17° |
| 2026-05-04 22:22 | 49.77447 | 6.54893 | 35958 ft | 487 kts | 17° |
| 2026-05-04 22:23 | 49.83887 | 6.58196 | 35954 ft | 488 kts | 17° |
| 2026-05-04 22:23 | 49.90330 | 6.61511 | 35969 ft | 488 kts | 17° |
| 2026-05-04 22:24 | 49.96768 | 6.64838 | 35963 ft | 488 kts | 17° |
| 2026-05-04 22:24 | 50.03212 | 6.68180 | 35964 ft | 488 kts | 17° |
| 2026-05-04 22:25 | 50.09662 | 6.71535 | 35967 ft | 489 kts | 17° |
| 2026-05-04 22:25 | 50.16117 | 6.74903 | 35957 ft | 489 kts | 17° |
| 2026-05-04 22:26 | 50.22536 | 6.78260 | 35984 ft | 489 kts | 17° |
| 2026-05-04 22:26 | 50.28995 | 6.81648 | 35986 ft | 489 kts | 17° |
| 2026-05-04 22:27 | 50.35455 | 6.85047 | 35982 ft | 490 kts | 17° |
| 2026-05-04 22:27 | 50.41912 | 6.88454 | 35980 ft | 490 kts | 17° |
| 2026-05-04 22:28 | 50.48369 | 6.91871 | 35982 ft | 490 kts | 17° |
| 2026-05-04 22:28 | 50.54717 | 6.95239 | 35981 ft | 490 kts | 17° |
| 2026-05-04 22:29 | 50.61179 | 6.98678 | 35974 ft | 490 kts | 17° |
| 2026-05-04 22:29 | 50.67641 | 7.02126 | 35972 ft | 490 kts | 17° |
| 2026-05-04 22:30 | 50.74065 | 7.05565 | 35969 ft | 490 kts | 17° |
| 2026-05-04 22:30 | 50.80528 | 7.09035 | 35970 ft | 490 kts | 17° |
| 2026-05-04 22:31 | 50.86989 | 7.12513 | 35969 ft | 491 kts | 17° |
| 2026-05-04 22:31 | 50.93469 | 7.16013 | 35965 ft | 491 kts | 17° |
| 2026-05-04 22:31 | 50.96737 | 7.17780 | 35311 ft | 500 kts | 17° |
| 2026-05-04 22:32 | 51.00022 | 7.19559 | 34629 ft | 499 kts | 17° |
| 2026-05-04 22:32 | 51.03315 | 7.21347 | 33792 ft | 500 kts | 17° |
| 2026-05-04 22:32 | 51.06607 | 7.23137 | 32974 ft | 499 kts | 17° |
| 2026-05-04 22:32 | 51.09885 | 7.24923 | 32104 ft | 499 kts | 17° |
| 2026-05-04 22:33 | 51.13175 | 7.26717 | 31167 ft | 501 kts | 17° |
| 2026-05-04 22:33 | 51.16474 | 7.28519 | 30253 ft | 502 kts | 16° |
| 2026-05-04 22:33 | 51.19792 | 7.30333 | 29023 ft | 506 kts | 16° |
| 2026-05-04 22:33 | 51.23124 | 7.32156 | 27846 ft | 507 kts | 17° |
| 2026-05-04 22:34 | 51.26469 | 7.33991 | 26674 ft | 507 kts | 17° |
| 2026-05-04 22:34 | 51.29770 | 7.35805 | 25551 ft | 507 kts | 17° |
| 2026-05-04 22:34 | 51.33083 | 7.37630 | 24727 ft | 500 kts | 17° |
| 2026-05-04 22:34 | 51.36350 | 7.39433 | 23876 ft | 494 kts | 17° |
| 2026-05-04 22:35 | 51.39583 | 7.41219 | 22910 ft | 489 kts | 17° |
| 2026-05-04 22:35 | 51.42773 | 7.42982 | 21976 ft | 482 kts | 17° |
| 2026-05-04 22:35 | 51.45921 | 7.44726 | 21106 ft | 474 kts | 17° |
| 2026-05-04 22:35 | 51.49021 | 7.46444 | 20240 ft | 467 kts | 18° |
| 2026-05-04 22:36 | 51.52067 | 7.48135 | 19412 ft | 460 kts | 18° |
| 2026-05-04 22:36 | 51.55067 | 7.49803 | 18588 ft | 454 kts | 18° |
| 2026-05-04 22:36 | 51.58033 | 7.51454 | 17684 ft | 448 kts | 18° |
| 2026-05-04 22:36 | 51.60963 | 7.53087 | 16795 ft | 442 kts | 18° |
| 2026-05-04 22:37 | 51.63847 | 7.54696 | 15946 ft | 436 kts | 18° |
| 2026-05-04 22:37 | 51.66693 | 7.56287 | 15127 ft | 429 kts | 18° |
| 2026-05-04 22:37 | 51.69472 | 7.57843 | 14331 ft | 424 kts | 18° |
| 2026-05-04 22:37 | 51.72217 | 7.59538 | 13450 ft | 420 kts | 23° |
| 2026-05-04 22:38 | 51.74827 | 7.61630 | 12591 ft | 416 kts | 27° |
| 2026-05-04 22:38 | 51.77378 | 7.63726 | 11755 ft | 409 kts | 21° |
| 2026-05-04 22:38 | 51.80130 | 7.64645 | 10969 ft | 401 kts | 359° |
| 2026-05-04 22:38 | 51.82797 | 7.63934 | 10756 ft | 377 kts | 339° |
| 2026-05-04 22:39 | 51.85064 | 7.62111 | 10595 ft | 354 kts | 322° |
| 2026-05-04 22:39 | 51.86847 | 7.59555 | 10450 ft | 333 kts | 309° |
| 2026-05-04 22:39 | 51.88193 | 7.56638 | 10300 ft | 315 kts | 296° |
| 2026-05-04 22:39 | 51.89027 | 7.53530 | 10183 ft | 298 kts | 285° |
| 2026-05-04 22:40 | 51.89632 | 7.50409 | 10057 ft | 285 kts | 284° |
| 2026-05-04 22:40 | 51.90180 | 7.47395 | 9906 ft | 274 kts | 283° |
| 2026-05-04 22:40 | 51.90714 | 7.44433 | 9523 ft | 273 kts | 283° |
| 2026-05-04 22:40 | 51.91240 | 7.41536 | 9173 ft | 271 kts | 283° |
| 2026-05-04 22:41 | 51.91774 | 7.38624 | 8822 ft | 269 kts | 284° |
| 2026-05-04 22:41 | 51.92307 | 7.35739 | 8498 ft | 266 kts | 284° |
| 2026-05-04 22:41 | 51.92835 | 7.32882 | 8169 ft | 263 kts | 284° |
| 2026-05-04 22:41 | 51.93360 | 7.30055 | 7845 ft | 261 kts | 284° |
| 2026-05-04 22:42 | 51.93882 | 7.27243 | 7519 ft | 259 kts | 284° |
| 2026-05-04 22:42 | 51.94398 | 7.24453 | 7203 ft | 258 kts | 284° |
| 2026-05-04 22:42 | 51.94911 | 7.21680 | 6868 ft | 257 kts | 284° |
| 2026-05-04 22:42 | 51.95427 | 7.18915 | 6531 ft | 256 kts | 287° |
| 2026-05-04 22:43 | 51.96370 | 7.16477 | 6183 ft | 260 kts | 315° |
| 2026-05-04 22:43 | 51.97905 | 7.15041 | 5856 ft | 264 kts | 342° |
| 2026-05-04 22:43 | 51.99734 | 7.14940 | 5533 ft | 267 kts | 12° |
| 2026-05-04 22:43 | 52.01401 | 7.16214 | 5320 ft | 263 kts | 34° |
| 2026-05-04 22:44 | 52.02668 | 7.18257 | 5161 ft | 256 kts | 61° |
| 2026-05-04 22:44 | 52.03359 | 7.20853 | 5077 ft | 245 kts | 71° |
| 2026-05-04 22:44 | 52.03897 | 7.23431 | 4950 ft | 237 kts | 72° |
| 2026-05-04 22:44 | 52.04404 | 7.25890 | 4845 ft | 229 kts | 72° |
| 2026-05-04 22:45 | 52.04921 | 7.28352 | 4643 ft | 227 kts | 71° |
| 2026-05-04 22:45 | 52.05918 | 7.33045 | 4185 ft | 215 kts | 71° |
| 2026-05-04 22:45 | 52.06399 | 7.35295 | 3936 ft | 208 kts | 71° |
| 2026-05-04 22:46 | 52.06867 | 7.37480 | 3696 ft | 202 kts | 71° |
| 2026-05-04 22:46 | 52.07323 | 7.39612 | 3472 ft | 198 kts | 71° |
| 2026-05-04 22:46 | 52.07776 | 7.41729 | 3262 ft | 198 kts | 71° |
| 2026-05-04 22:46 | 52.08229 | 7.43846 | 3052 ft | 198 kts | 71° |
| 2026-05-04 22:47 | 52.08683 | 7.45971 | 2787 ft | 199 kts | 71° |
| 2026-05-04 22:47 | 52.09133 | 7.48079 | 2537 ft | 195 kts | 71° |
| 2026-05-04 22:47 | 52.09572 | 7.50137 | 2300 ft | 190 kts | 71° |
| 2026-05-04 22:47 | 52.09995 | 7.52121 | 2043 ft | 183 kts | 71° |
| 2026-05-04 22:48 | 52.10411 | 7.54080 | 1918 ft | 184 kts | 71° |
| 2026-05-04 22:48 | 52.10818 | 7.55984 | 1755 ft | 167 kts | 71° |
| 2026-05-04 22:48 | 52.11159 | 7.57643 | 1519 ft | 149 kts | 72° |
| 2026-05-04 22:48 | 52.11508 | 7.59223 | 1211 ft | 149 kts | 71° |
| 2026-05-04 22:49 | 52.11842 | 7.60791 | 979 ft | 142 kts | 70° |
| 2026-05-04 22:49 | 52.12179 | 7.62276 | 789 ft | 142 kts | 71° |
| 2026-05-04 22:49 | 52.12502 | 7.63844 | 642 ft | 148 kts | 72° |
| 2026-05-04 22:49 | 52.12819 | 7.65395 | 393 ft | 142 kts | 71° |
| 2026-05-04 22:50 | 52.13132 | 7.66894 | 216 ft | 138 kts | 71° |
| 2026-05-04 22:50 | 52.13421 | 7.68280 | 166 ft | 109 kts | 71° |
| 2026-05-04 22:50 | 52.13606 | 7.69141 | 167 ft | 62 kts | 70° |
| 2026-05-04 22:50 | 52.13736 | 7.69734 | 165 ft | 46 kts | 70° |
| 2026-05-04 22:51 | 52.13745 | 7.69998 | 164 ft | 20 kts | 141° |
| 2026-05-04 22:51 | 52.13623 | 7.69992 | 161 ft | 18 kts | 220° |
| 2026-05-04 22:51 | 52.13570 | 7.69808 | 163 ft | 18 kts | 250° |
| 2026-05-04 22:51 | 52.13529 | 7.69620 | 163 ft | 17 kts | 251° |
| 2026-05-04 22:52 | 52.13493 | 7.69437 | 163 ft | 17 kts | 252° |
| 2026-05-04 22:52 | 52.13455 | 7.69266 | 162 ft | 13 kts | 248° |
| 2026-05-04 22:52 | 52.13399 | 7.69239 | 163 ft | 9 kts | 160° |
| 2026-05-04 22:52 | 52.13341 | 7.69273 | 163 ft | 9 kts | 161° |
| 2026-05-04 22:53 | 52.13283 | 7.69304 | 163 ft | 9 kts | 161° |
| 2026-05-04 22:53 | 52.13226 | 7.69321 | 163 ft | 8 kts | 170° |
| 2026-05-04 22:53 | 52.13171 | 7.69306 | 163 ft | 8 kts | 195° |
| 2026-05-04 22:53 | 52.13160 | 7.69301 | 163 ft | 0 kts | 197° |